createdAt,value
2022-08-03T00:02:39.008Z,8.93
2022-08-03T00:06:04.605Z,9.00
2022-08-03T00:09:07.512Z,8.00
2022-08-03T00:12:11.645Z,7.40
2022-08-03T00:15:16.875Z,5.50
2022-08-03T00:18:20.849Z,4.25
2022-08-03T00:21:25.208Z,5.22
2022-08-03T00:24:28.895Z,5.07
2022-08-03T00:27:32.819Z,5.13
2022-08-03T00:30:39.248Z,5.50
2022-08-03T00:37:07.166Z,6.00
2022-08-03T00:40:16.625Z,6.00
2022-08-03T00:43:20.592Z,5.97
2022-08-03T00:46:24.585Z,5.75
2022-08-03T00:49:28.840Z,6.90
2022-08-03T00:52:33.067Z,7.03
2022-08-03T00:55:40.233Z,7.10
2022-08-03T00:58:46.313Z,7.03
2022-08-03T01:01:49.735Z,7.20
2022-08-03T01:04:54.389Z,8.00
2022-08-03T01:08:11.480Z,6.40
2022-08-03T01:12:00.843Z,5.90
2022-08-03T01:15:10.800Z,5.80
2022-08-03T01:18:29.355Z,5.90
2022-08-03T01:21:41.486Z,6.15
2022-08-03T01:25:07.956Z,6.70
2022-08-03T01:28:14.453Z,6.00
2022-08-03T01:31:27.149Z,6.07
2022-08-03T01:34:35.207Z,5.55
2022-08-03T01:37:48.845Z,6.18
2022-08-03T01:40:55.382Z,6.40
2022-08-03T01:44:29.443Z,6.20
2022-08-03T01:50:32.136Z,5.80
2022-08-03T01:53:37.727Z,5.70
2022-08-03T01:56:43.943Z,6.15
2022-08-03T01:59:50.332Z,6.13
2022-08-03T02:02:56.583Z,5.97
2022-08-03T02:07:00.579Z,6.40
2022-08-03T02:09:28.017Z,6.18
2022-08-03T02:12:33.256Z,6.60
2022-08-03T02:15:41.068Z,6.10
2022-08-03T02:18:46.459Z,6.82
2022-08-03T02:21:56.637Z,6.82
2022-08-03T02:25:05.218Z,6.25
2022-08-03T02:28:19.066Z,6.35
2022-08-03T02:31:27.974Z,6.45
2022-08-03T02:34:35.169Z,6.32
2022-08-03T02:37:45.079Z,6.60
2022-08-03T02:40:57.497Z,6.70
2022-08-03T02:44:07.086Z,6.40
2022-08-03T02:47:13.578Z,6.53
2022-08-03T02:50:18.619Z,6.15
2022-08-03T02:53:24.381Z,6.40
2022-08-03T02:56:29.084Z,5.72
2022-08-03T02:59:33.300Z,6.07
2022-08-03T03:02:38.080Z,5.82
2022-08-03T03:05:53.596Z,6.10
2022-08-03T03:09:05.137Z,6.30
2022-08-03T03:12:10.992Z,6.32
2022-08-03T03:15:14.696Z,7.00
2022-08-03T03:18:22.250Z,6.35
2022-08-03T03:21:28.517Z,5.60
2022-08-03T03:24:32.762Z,6.30
2022-08-03T03:27:36.751Z,6.78
2022-08-03T03:30:41.849Z,9.18
2022-08-03T03:33:46.395Z,10.10
2022-08-03T03:36:50.089Z,7.13
2022-08-03T03:39:56.849Z,6.93
2022-08-03T03:43:00.608Z,6.47
2022-08-03T03:46:06.019Z,6.72
2022-08-03T03:49:09.938Z,6.20
2022-08-03T03:52:14.476Z,6.88
2022-08-03T03:55:19.703Z,6.80
2022-08-03T03:58:24.894Z,6.65
2022-08-03T04:01:29.250Z,6.70
2022-08-03T04:04:52.818Z,6.63
2022-08-03T04:08:26.288Z,9.75
2022-08-03T04:11:38.071Z,7.82
2022-08-03T04:14:43.466Z,7.70
2022-08-03T04:17:48.085Z,7.53
2022-08-03T04:20:53.845Z,6.90
2022-08-03T04:24:02.697Z,7.68
2022-08-03T04:27:09.420Z,7.28
2022-08-03T04:30:15.864Z,7.32
2022-08-03T04:33:21.081Z,7.47
2022-08-03T04:36:31.496Z,7.63
2022-08-03T04:39:37.365Z,7.63
2022-08-03T04:42:42.730Z,7.75
2022-08-03T04:45:52.143Z,7.75
2022-08-03T04:48:56.636Z,7.80
2022-08-03T04:52:00.840Z,7.80
2022-08-03T04:55:04.323Z,7.70
2022-08-03T04:58:08.421Z,7.80
2022-08-03T05:01:12.136Z,8.02
2022-08-03T05:04:15.761Z,7.95
2022-08-03T05:07:24.876Z,7.70
2022-08-03T05:10:29.334Z,8.32
2022-08-03T05:13:33.139Z,7.65
2022-08-03T05:16:36.946Z,6.80
2022-08-03T05:19:40.949Z,7.05
2022-08-03T05:22:45.137Z,7.72
2022-08-03T05:25:50.140Z,8.07
2022-08-03T05:28:54.245Z,8.30
2022-08-03T05:31:57.921Z,8.00
2022-08-03T05:35:57.921Z,7.38
2022-08-03T05:38:28.460Z,6.82
2022-08-03T05:41:37.999Z,7.43
2022-08-03T05:44:42.634Z,7.95
2022-08-03T05:47:47.375Z,7.97
2022-08-03T05:50:50.623Z,8.32
2022-08-03T05:53:54.892Z,8.25
2022-08-03T05:56:59.264Z,9.05
2022-08-03T06:00:08.175Z,8.55
2022-08-03T06:03:15.750Z,8.90
2022-08-03T06:06:19.830Z,8.65
2022-08-03T06:09:23.670Z,8.07
2022-08-03T06:12:50.394Z,8.38
2022-08-03T06:18:57.626Z,9.30
2022-08-03T06:22:00.964Z,8.23
2022-08-03T06:25:11.282Z,8.18
2022-08-03T06:28:51.159Z,8.27
2022-08-03T06:31:40.142Z,9.65
2022-08-03T06:34:44.825Z,9.13
2022-08-03T06:37:51.484Z,9.00
2022-08-03T06:40:55.911Z,8.63
2022-08-03T06:44:03.051Z,8.48
2022-08-03T06:47:09.570Z,7.00
2022-08-03T06:50:16.970Z,8.00
2022-08-03T06:53:23.061Z,8.23
2022-08-03T06:56:26.824Z,7.90
2022-08-03T07:00:10.527Z,7.55
2022-08-03T07:02:58.079Z,8.23
2022-08-03T07:06:03.461Z,7.40
2022-08-03T07:09:07.790Z,7.60
2022-08-03T07:12:12.162Z,7.85
2022-08-03T07:15:20.461Z,8.20
2022-08-03T07:18:41.540Z,7.57
2022-08-03T07:21:46.087Z,8.43
2022-08-03T07:24:50.644Z,8.02
2022-08-03T07:27:54.526Z,7.10
2022-08-03T07:31:00.508Z,7.20
2022-08-03T07:34:04.187Z,7.10
2022-08-03T07:37:08.002Z,6.47
2022-08-03T07:40:12.089Z,6.75
2022-08-03T07:43:16.277Z,6.30
2022-08-03T07:46:20.356Z,6.50
2022-08-03T07:49:24.722Z,5.95
2022-08-03T07:52:46.897Z,5.20
2022-08-03T07:55:50.746Z,7.20
2022-08-03T07:58:55.373Z,5.90
2022-08-03T08:01:59.331Z,6.22
2022-08-03T08:05:05.655Z,5.82
2022-08-03T08:08:09.923Z,6.22
2022-08-03T08:11:16.952Z,6.65
2022-08-03T08:14:20.960Z,6.20
2022-08-03T08:17:25.281Z,6.43
2022-08-03T08:20:32.120Z,6.95
2022-08-03T08:23:42.318Z,6.80
2022-08-03T08:26:48.471Z,7.43
2022-08-03T08:29:55.227Z,6.95
2022-08-03T08:33:01.865Z,6.70
2022-08-03T08:36:05.699Z,6.78
2022-08-03T08:39:09.884Z,7.10
2022-08-03T08:42:13.707Z,7.28
2022-08-03T08:45:19.211Z,7.47
2022-08-03T08:48:26.087Z,7.43
2022-08-03T08:51:59.546Z,8.63
2022-08-03T08:55:06.043Z,8.00
2022-08-03T08:58:14.058Z,8.80
2022-08-03T09:01:26.156Z,8.35
2022-08-03T09:04:32.387Z,8.93
2022-08-03T09:07:36.564Z,8.38
2022-08-03T09:10:40.965Z,9.48
2022-08-03T09:13:44.866Z,9.10
2022-08-03T09:17:10.411Z,9.75
2022-08-03T09:20:23.159Z,9.05
2022-08-03T09:24:01.033Z,10.02
2022-08-03T09:27:12.664Z,10.73
2022-08-03T09:30:33.348Z,10.40
2022-08-03T09:33:48.833Z,10.38
2022-08-03T09:36:55.939Z,10.40
2022-08-03T09:39:59.891Z,10.07
2022-08-03T09:43:03.943Z,10.30
2022-08-03T09:46:08.180Z,10.27
2022-08-03T09:49:13.238Z,10.20
2022-08-03T09:52:37.873Z,9.85
2022-08-03T09:56:35.081Z,10.00
2022-08-03T09:59:30.953Z,8.73
2022-08-03T10:02:34.857Z,9.40
2022-08-03T10:05:45.273Z,8.90
2022-08-03T10:09:06.155Z,8.80
2022-08-03T10:12:14.566Z,8.82
2022-08-03T10:16:24.146Z,8.90
2022-08-03T10:18:42.773Z,9.15
2022-08-03T10:21:54.984Z,11.20
2022-08-03T10:25:13.885Z,8.60
2022-08-03T10:28:20.657Z,8.95
2022-08-03T10:31:25.846Z,9.82
2022-08-03T10:34:36.082Z,8.80
2022-08-03T10:38:00.859Z,9.80
2022-08-03T10:41:06.541Z,9.23
2022-08-03T10:44:20.394Z,8.23
2022-08-03T10:47:24.294Z,8.40
2022-08-03T10:50:28.929Z,8.25
2022-08-03T10:53:38.286Z,8.02
2022-08-03T10:57:01.913Z,9.50
2022-08-03T11:00:26.608Z,8.93
2022-08-03T11:03:30.689Z,10.23
2022-08-03T11:06:37.783Z,10.68
2022-08-03T11:09:55.587Z,8.77
2022-08-03T11:13:13.140Z,9.20
2022-08-03T11:16:22.282Z,11.73
2022-08-03T11:19:57.400Z,8.68
2022-08-03T11:23:02.283Z,7.90
2022-08-03T11:26:13.338Z,6.85
2022-08-03T11:29:32.126Z,7.00
2022-08-03T11:32:39.310Z,8.32
2022-08-03T11:39:16.981Z,9.60
2022-08-03T11:42:27.543Z,9.02
2022-08-03T11:45:34.922Z,10.13
2022-08-03T11:48:39.687Z,9.07
2022-08-03T11:51:43.362Z,10.20
2022-08-03T11:54:47.429Z,10.43
2022-08-03T11:59:17.091Z,9.80
2022-08-03T12:01:26.045Z,9.65
2022-08-03T12:04:30.529Z,8.70
2022-08-03T12:08:03.952Z,9.45
2022-08-03T12:11:00.286Z,8.95
2022-08-03T12:14:50.240Z,9.70
2022-08-03T12:17:38.252Z,9.55
2022-08-03T12:20:42.516Z,9.98
2022-08-03T12:23:46.426Z,9.27
2022-08-03T12:26:58.401Z,8.45
2022-08-03T12:30:05.344Z,7.70
2022-08-03T12:33:21.109Z,9.60
2022-08-03T12:36:24.858Z,8.77
2022-08-03T12:39:31.234Z,9.25
2022-08-03T12:42:38.281Z,14.80
2022-08-03T12:45:42.834Z,9.18
2022-08-03T12:49:06.181Z,7.85
2022-08-03T12:52:10.786Z,19.98
2022-08-03T12:55:23.834Z,9.32
2022-08-03T12:58:36.285Z,8.23
2022-08-03T13:01:54.790Z,7.65
2022-08-03T13:05:01.056Z,7.47
2022-08-03T13:08:04.954Z,8.57
2022-08-03T13:11:22.218Z,7.82
2022-08-03T13:14:25.904Z,8.05
2022-08-03T13:17:30.081Z,7.82
2022-08-03T13:20:34.334Z,8.60
2022-08-03T13:23:38.436Z,14.23
2022-08-03T13:26:42.267Z,8.38
2022-08-03T13:29:46.071Z,9.38
2022-08-03T13:32:50.192Z,8.55
2022-08-03T13:35:53.382Z,8.98
2022-08-03T13:38:57.693Z,8.48
2022-08-03T13:42:00.995Z,9.43
2022-08-03T13:45:05.836Z,7.70
2022-08-03T13:48:09.009Z,7.28
2022-08-03T13:51:22.674Z,8.23
2022-08-03T13:54:30.786Z,8.40
2022-08-03T13:58:04.544Z,8.55
2022-08-03T14:00:58.864Z,29.52
2022-08-03T14:04:02.788Z,8.07
2022-08-03T14:07:06.349Z,10.18
2022-08-03T14:10:10.702Z,6.88
2022-08-03T14:13:17.855Z,7.22
2022-08-03T14:16:22.459Z,9.48
2022-08-03T14:19:25.915Z,8.55
2022-08-03T14:22:31.057Z,10.02
2022-08-03T14:25:44.434Z,6.15
2022-08-03T14:28:54.834Z,6.60
2022-08-03T14:32:10.001Z,7.75
2022-08-03T14:35:16.258Z,7.07
2022-08-03T14:38:19.581Z,7.78
2022-08-03T14:41:23.923Z,6.30
2022-08-03T14:44:27.567Z,4.30
2022-08-03T14:47:31.699Z,5.28
2022-08-03T14:50:41.970Z,3.80
2022-08-03T14:53:47.985Z,4.53
2022-08-03T14:56:51.740Z,4.53
2022-08-03T14:59:57.284Z,4.97
2022-08-03T15:03:01.008Z,4.80
2022-08-03T15:06:04.948Z,4.75
2022-08-03T15:09:23.723Z,4.32
2022-08-03T15:12:28.165Z,4.50
2022-08-03T15:15:31.955Z,3.65
2022-08-03T15:18:35.561Z,4.10
2022-08-03T15:21:46.310Z,3.95
2022-08-03T15:24:51.996Z,4.10
2022-08-03T15:28:03.700Z,4.72
2022-08-03T15:31:08.379Z,4.80
2022-08-03T15:34:12.971Z,4.47
2022-08-03T15:37:16.753Z,4.10
2022-08-03T15:40:20.441Z,4.20
2022-08-03T15:43:24.992Z,6.60
2022-08-03T15:46:31.593Z,7.85
2022-08-03T15:49:35.551Z,7.72
2022-08-03T15:52:39.094Z,7.20
2022-08-03T15:55:43.166Z,7.38
2022-08-03T15:59:11.424Z,8.32
2022-08-03T16:02:11.548Z,8.85
2022-08-03T16:05:14.770Z,8.25
2022-08-03T16:08:19.077Z,7.88
2022-08-03T16:11:22.863Z,7.70
2022-08-03T16:14:32.020Z,8.77
2022-08-03T16:17:40.172Z,8.95
2022-08-03T16:20:45.822Z,8.43
2022-08-03T16:23:49.722Z,8.63
2022-08-03T16:26:53.876Z,9.60
2022-08-03T16:29:57.359Z,7.68
2022-08-03T16:33:01.728Z,9.13
2022-08-03T16:36:06.452Z,8.75
2022-08-03T16:39:10.488Z,8.35
2022-08-03T16:42:14.183Z,9.45
2022-08-03T16:45:18.201Z,9.02
2022-08-03T16:48:21.482Z,8.68
2022-08-03T16:51:25.714Z,7.45
2022-08-03T16:54:44.516Z,8.07
2022-08-03T16:58:00.261Z,8.60
2022-08-03T17:01:20.964Z,8.95
2022-08-03T17:04:27.019Z,8.13
2022-08-03T17:07:30.910Z,7.95
2022-08-03T17:10:34.740Z,6.75
2022-08-03T17:13:39.442Z,7.53
2022-08-03T17:16:52.440Z,7.47
2022-08-03T17:19:59.728Z,7.05
2022-08-03T17:23:34.632Z,6.87
2022-08-03T17:26:44.810Z,7.45
2022-08-03T17:29:50.233Z,8.73
2022-08-03T17:32:57.425Z,9.05
2022-08-03T17:36:01.950Z,9.25
2022-08-03T17:39:07.031Z,8.50
2022-08-03T17:42:31.631Z,8.98
2022-08-03T17:45:42.191Z,7.20
2022-08-03T17:48:56.973Z,6.90
2022-08-03T17:52:24.057Z,7.13
2022-08-03T17:55:57.651Z,7.28
2022-08-03T17:59:00.505Z,6.55
2022-08-03T18:02:48.061Z,5.80
2022-08-03T18:06:11.163Z,7.53
2022-08-03T18:12:55.622Z,5.18
2022-08-03T18:16:07.795Z,4.93
2022-08-03T18:19:14.311Z,5.30
2022-08-03T18:22:21.462Z,6.10
2022-08-03T18:25:42.912Z,4.28
2022-08-03T18:28:54.865Z,3.55
2022-08-03T18:32:03.088Z,4.05
2022-08-03T18:35:13.861Z,3.90
2022-08-03T18:38:19.115Z,4.00
2022-08-03T18:41:32.293Z,4.07
2022-08-03T18:44:54.351Z,4.20
2022-08-03T18:48:26.980Z,4.78
2022-08-03T18:51:34.083Z,4.10
2022-08-03T18:55:09.521Z,4.47
2022-08-03T18:58:18.070Z,4.97
2022-08-03T19:02:00.292Z,5.65
2022-08-03T19:05:10.314Z,6.60
2022-08-03T19:08:20.672Z,6.85
2022-08-03T19:12:11.137Z,6.65
2022-08-03T19:15:15.554Z,7.05
2022-08-03T19:18:22.869Z,8.52
2022-08-03T19:21:29.402Z,5.78
2022-08-03T19:24:37.284Z,5.82
2022-08-03T19:27:43.486Z,5.50
2022-08-03T19:30:53.786Z,4.67
2022-08-03T19:33:59.311Z,4.13
2022-08-03T19:37:03.519Z,3.70
2022-08-03T19:40:10.974Z,3.83
2022-08-03T19:43:53.837Z,4.30
2022-08-03T19:47:10.593Z,4.43
2022-08-03T19:50:22.058Z,4.00
2022-08-03T19:53:35.213Z,3.60
2022-08-03T19:56:47.504Z,4.78
2022-08-03T19:59:53.281Z,4.25
2022-08-03T20:02:58.106Z,4.50
2022-08-03T20:06:02.828Z,4.32
2022-08-03T20:09:07.367Z,4.28
2022-08-03T20:12:11.871Z,4.20
2022-08-03T20:15:18.325Z,4.47
2022-08-03T20:18:39.166Z,4.35
2022-08-03T20:21:48.746Z,4.13
2022-08-03T20:24:55.828Z,4.03
2022-08-03T20:28:13.857Z,3.70
2022-08-03T20:31:18.643Z,4.47
2022-08-03T20:34:22.821Z,4.45
2022-08-03T20:37:26.650Z,4.43
2022-08-03T20:40:34.394Z,4.15
2022-08-03T20:43:38.087Z,3.22
2022-08-03T20:46:56.300Z,3.60
2022-08-03T20:50:07.771Z,3.50
2022-08-03T20:53:12.250Z,3.63
2022-08-03T20:56:16.961Z,3.67
2022-08-03T20:59:21.029Z,3.47
2022-08-03T21:02:29.636Z,3.80
2022-08-03T21:09:07.158Z,3.25
2022-08-03T21:12:17.830Z,3.83
2022-08-03T21:12:57.102Z,5.72
2022-08-03T21:13:13.491Z,3.22
2022-08-03T21:16:03.313Z,3.58
2022-08-03T21:18:54.084Z,3.95
2022-08-03T21:21:59.364Z,4.05
2022-08-03T21:25:06.431Z,4.35
2022-08-03T21:28:09.948Z,4.30
2022-08-03T21:31:22.321Z,5.18
2022-08-03T21:34:31.312Z,3.90
2022-08-03T21:37:35.638Z,3.90
2022-08-03T21:40:41.625Z,3.35
2022-08-03T21:43:45.308Z,3.83
2022-08-03T21:46:54.790Z,3.58
2022-08-03T21:50:06.039Z,3.85
2022-08-03T21:53:13.164Z,4.07
2022-08-03T21:56:20.704Z,4.30
2022-08-03T21:59:25.694Z,4.22
2022-08-03T22:02:32.238Z,4.43
2022-08-03T22:05:44.013Z,4.63
2022-08-03T22:08:49.555Z,5.57
2022-08-03T22:11:55.210Z,8.40
2022-08-03T22:15:01.999Z,5.40
2022-08-03T22:18:06.719Z,6.05
2022-08-03T22:21:12.762Z,6.13
2022-08-03T22:24:23.905Z,5.28
2022-08-03T22:27:32.184Z,5.40
2022-08-03T22:30:36.589Z,5.40
2022-08-03T22:33:40.881Z,7.18
2022-08-03T22:36:44.359Z,6.85
2022-08-03T22:39:48.652Z,9.63
2022-08-03T22:42:53.271Z,8.60
2022-08-03T22:46:09.160Z,8.20
2022-08-03T22:49:16.086Z,8.30
2022-08-03T22:52:21.101Z,8.80
2022-08-03T22:55:25.341Z,9.20
2022-08-03T22:58:28.912Z,9.30
2022-08-03T23:01:41.586Z,10.32
2022-08-03T23:04:46.493Z,11.85
2022-08-03T23:07:52.022Z,11.35
2022-08-03T23:11:01.744Z,11.93
2022-08-03T23:14:12.067Z,10.88
2022-08-03T23:17:16.562Z,9.18
2022-08-03T23:20:21.149Z,8.32
2022-08-03T23:23:43.882Z,10.15
2022-08-03T23:26:49.885Z,11.07
2022-08-03T23:29:54.997Z,9.55
2022-08-03T23:33:02.244Z,8.82
2022-08-03T23:36:27.861Z,4.85
2022-08-03T23:39:36.276Z,4.95
2022-08-03T23:42:43.104Z,5.35
2022-08-03T23:45:49.428Z,5.10
2022-08-03T23:48:56.406Z,4.75
2022-08-03T23:58:56.651Z,4.40
